Bailey, Michigan
Current Conditions -  °F | °C
As of 7:33 AM on Sunday 23 Nov 2014 (Local Time) from KFFX Reporting Station
Overcast Overcast  
Wind Chill: 42°   Ceiling: 2100
Heat Index: 45°   Visibility: 7mi
Dew Point: 44°   Wind: 5mph
Humidity: 96%   Direction: 160°SSE
Pressure: 29.78"   Gusts: NA
Location:  43.28°N, 85.81°W
Report Text: KFFX 231233Z AUTO 16004KT 7SM OVC021 07/06 A2978 RMK AO2 T00700064
Loading
Personal Weather Stations






























Interactive Weather Map New forecast layout! Learn more

10-Day Weather Forecast

Advertisements
Track Severe Weather on mobile